MUHA/HAV METAR and TAF weather

Enter ICAO airport designator
Station Type Date Time Source
MUHA METAR 2020/01/23 08:55 UTC NOAA

MUHA 230855Z VRB02KT 9000 SCT040 10/08 Q1016


Station Type Date Time Source
MUHA Decoded METAR 2020/01/23 08:55 UTC NOAA

Aeropuerto Jose Marti, Rancho-Boyeros, Habana, Cuba (MUHA) 22-59N 082-24W 75M
Jan 23, 2020 - 03:55 AM EST / 2020.01.23 0855 UTC
Wind: Variable at 2 MPH (2 KT):0
Visibility: 5 mile(s):0
Sky conditions: partly cloudy
Temperature: 50 F (10 C)
Dew Point: 46 F (8 C)
Relative Humidity: 87%
Pressure (altimeter): 30.00 in. Hg (1016 hPa)
ob: MUHA 230855Z VRB02KT 9000 SCT040 10/08 Q1016
cycle: 9

Station Type Date Time Source
MUHA TAF 2020/01/23 06:03 UTC NOAA

TAF MUHA 230500Z 2306/2406 VRB03KT 9000 SCT030
BECMG 2314/2316 02010KT
BECMG 2401/2403 VRB03KT FEW030

Example: see airport list